Terminal Aerodrome Forecast
Issued by NWS

Home | Current Version | Previous Version | Text Only | Print | Product List | Glossary On
Versions: 1 2 3 4 5 6 7 8 9 10 11 12 13
000
FTUS45 KRIW 252332
TAFRKS
TAF
KRKS 252332Z 2600/2624 04009KT P6SM -SHRA VCTS SCT050CB BKN080
     FM260300 07010KT P6SM VCSH BKN060
     FM260700 VRB06KT P6SM SCT080 BKN120
     FM262100 19012G18KT P6SM VCTS SCT070CB BKN100=

USA.gov is the U.S. government's official web portal to all federal, state and local government web resources and services.